Time;durP1;ratioP1;P1;durP2;ratioP2;P2;SDS_P1;SDS_P2;PMS_P1;PMS_P2;Temp;Humidity;BMP_temperature;BMP_pressure;BME280_temperature;BME280_humidity;BME280_pressure;Samples;Min_cycle;Max_cycle;Signal;HPM_P1;HPM_P2
2023/10/31 00:02:10;;;;;;;0.50;0.50;;;;;;;;;;5054482;28;20441;-63
2023/10/31 00:04:37;;;;;;;0.93;0.80;;;;;;;;;;5054183;28;20894;-63
2023/10/31 00:07:05;;;;;;;2.33;0.60;;;;;;;;;;5053796;28;20454;-62
2023/10/31 00:09:34;;;;;;;0.60;0.50;;;;;;;;;;5054450;28;20449;-64
2023/10/31 00:12:02;;;;;;;1.27;0.60;;;;;;;;;;5053600;28;20795;-65
2023/10/31 00:14:28;;;;;;;1.50;0.60;;;;;;;;;;5053066;28;20407;-65
2023/10/31 00:16:54;;;;;;;1.57;0.57;;;;;;;;;;5053399;28;20538;-66
2023/10/31 00:19:20;;;;;;;0.60;0.60;;;;;;;;;;5053309;28;20415;-66
2023/10/31 00:21:46;;;;;;;3.13;0.63;;;;;;;;;;5053288;28;20430;-66
2023/10/31 00:24:12;;;;;;;0.80;0.80;;;;;;;;;;5053453;28;20407;-65
2023/10/31 00:26:38;;;;;;;0.70;0.70;;;;;;;;;;5053499;28;20937;-65
2023/10/31 00:29:04;;;;;;;0.93;0.83;;;;;;;;;;5053763;28;20434;-65
2023/10/31 00:31:30;;;;;;;1.07;0.80;;;;;;;;;;5053672;28;20477;-65
2023/10/31 00:33:57;;;;;;;1.70;0.77;;;;;;;;;;5053517;28;20898;-65
2023/10/31 00:36:23;;;;;;;1.00;0.47;;;;;;;;;;5053179;28;21001;-65
2023/10/31 00:38:49;;;;;;;0.50;0.50;;;;;;;;;;5053077;28;20514;-65
2023/10/31 00:41:15;;;;;;;4.93;0.80;;;;;;;;;;5053502;28;20470;-65
2023/10/31 00:43:41;;;;;;;1.03;0.93;;;;;;;;;;5053029;28;20422;-65
2023/10/31 00:46:07;;;;;;;0.93;0.70;;;;;;;;;;5053276;28;21116;-65
2023/10/31 00:48:36;;;;;;;1.10;0.60;;;;;;;;;;5053208;28;20520;-65
2023/10/31 00:51:02;;;;;;;1.73;0.70;;;;;;;;;;5053502;28;20435;-65
2023/10/31 00:53:28;;;;;;;0.60;0.60;;;;;;;;;;5052919;28;20407;-66
2023/10/31 00:55:54;;;;;;;2.73;0.60;;;;;;;;;;5053149;28;20459;-65
2023/10/31 00:58:20;;;;;;;2.00;0.80;;;;;;;;;;5052835;28;20933;-63
2023/10/31 01:00:46;;;;;;;1.77;1.00;;;;;;;;;;5052718;28;20415;-65
2023/10/31 01:03:15;;;;;;;0.73;0.73;;;;;;;;;;5053057;28;20450;-65
2023/10/31 01:05:41;;;;;;;0.70;0.67;;;;;;;;;;5052564;28;20415;-65
2023/10/31 01:08:07;;;;;;;3.90;0.73;;;;;;;;;;5052772;28;20796;-65
2023/10/31 01:10:33;;;;;;;0.70;0.60;;;;;;;;;;5052347;28;20411;-65
2023/10/31 01:12:58;;;;;;;2.67;0.60;;;;;;;;;;5052652;28;20914;-65
2023/10/31 01:15:24;;;;;;;2.50;1.17;;;;;;;;;;5052627;28;20407;-65
2023/10/31 01:17:50;;;;;;;2.07;0.50;;;;;;;;;;5052688;28;20411;-65
2023/10/31 01:20:16;;;;;;;2.50;0.73;;;;;;;;;;5052176;28;20449;-65
2023/10/31 01:22:42;;;;;;;0.60;0.60;;;;;;;;;;5052034;28;20917;-65
2023/10/31 01:25:11;;;;;;;1.23;0.60;;;;;;;;;;5052663;28;20690;-65
2023/10/31 01:27:37;;;;;;;1.53;0.70;;;;;;;;;;5052450;28;21086;-65
2023/10/31 01:30:03;;;;;;;1.23;0.90;;;;;;;;;;5052547;28;20438;-64
2023/10/31 01:32:32;;;;;;;0.97;0.77;;;;;;;;;;5052485;28;20517;-65
2023/10/31 01:34:58;;;;;;;1.00;0.80;;;;;;;;;;5052543;28;20411;-65
2023/10/31 01:37:23;;;;;;;1.30;0.57;;;;;;;;;;5052521;28;20431;-65
2023/10/31 01:39:50;;;;;;;1.93;0.70;;;;;;;;;;5052812;28;20425;-64
2023/10/31 01:42:16;;;;;;;1.03;0.80;;;;;;;;;;5052462;28;20438;-64
2023/10/31 01:44:44;;;;;;;2.87;0.77;;;;;;;;;;5052417;28;20425;-64
2023/10/31 01:47:10;;;;;;;6.53;1.10;;;;;;;;;;5052337;28;20480;-64
2023/10/31 01:49:37;;;;;;;0.80;0.80;;;;;;;;;;5052356;28;20793;-64
2023/10/31 01:52:07;;;;;;;2.60;0.90;;;;;;;;;;5052364;28;20430;-64
2023/10/31 01:54:36;;;;;;;1.20;1.20;;;;;;;;;;5052269;28;20454;-64
2023/10/31 01:57:03;;;;;;;2.60;1.10;;;;;;;;;;5052150;28;20913;-64
2023/10/31 01:59:29;;;;;;;2.00;1.10;;;;;;;;;;5052451;28;20528;-64
2023/10/31 02:01:56;;;;;;;0.70;0.70;;;;;;;;;;5052481;28;21025;-64
2023/10/31 02:04:22;;;;;;;0.70;0.70;;;;;;;;;;5052441;28;20443;-63
2023/10/31 02:06:48;;;;;;;3.90;0.80;;;;;;;;;;5052093;28;20426;-64
2023/10/31 02:09:14;;;;;;;1.47;0.70;;;;;;;;;;5052283;28;20418;-64
2023/10/31 02:11:40;;;;;;;1.27;0.73;;;;;;;;;;5052148;28;20813;-64
2023/10/31 02:14:06;;;;;;;1.30;1.20;;;;;;;;;;5052322;28;20447;-64
2023/10/31 02:16:32;;;;;;;0.70;0.70;;;;;;;;;;5052212;28;20410;-65
2023/10/31 02:18:58;;;;;;;1.17;1.07;;;;;;;;;;5051863;28;20416;-64
2023/10/31 02:21:25;;;;;;;0.97;0.80;;;;;;;;;;5051881;28;20446;-64
2023/10/31 02:23:58;;;;;;;1.77;1.37;;;;;;;;;;5055048;28;20465;-64
2023/10/31 02:26:24;;;;;;;9.53;1.10;;;;;;;;;;5055562;28;20422;-65
2023/10/31 02:28:50;;;;;;;1.87;1.00;;;;;;;;;;5055805;28;20470;-64
2023/10/31 02:31:16;;;;;;;1.00;0.70;;;;;;;;;;5055869;28;20407;-64
2023/10/31 02:33:42;;;;;;;0.83;0.80;;;;;;;;;;5055533;28;20410;-65
2023/10/31 02:36:08;;;;;;;4.50;1.03;;;;;;;;;;5055893;28;20397;-64
2023/10/31 02:38:34;;;;;;;0.70;0.67;;;;;;;;;;5055663;28;20517;-65
2023/10/31 02:41:00;;;;;;;2.33;1.07;;;;;;;;;;5055617;28;20458;-64
2023/10/31 02:43:26;;;;;;;2.87;1.20;;;;;;;;;;5055525;28;20449;-64
2023/10/31 02:45:52;;;;;;;6.80;1.23;;;;;;;;;;5055654;28;20419;-64
2023/10/31 02:48:18;;;;;;;0.90;0.90;;;;;;;;;;5055512;28;20826;-64
2023/10/31 02:50:44;;;;;;;2.20;1.00;;;;;;;;;;5055612;28;20415;-64
2023/10/31 02:53:13;;;;;;;0.90;0.90;;;;;;;;;;5055484;28;20438;-64
2023/10/31 02:55:39;;;;;;;1.23;1.00;;;;;;;;;;5055569;28;20441;-64
2023/10/31 02:58:05;;;;;;;1.30;1.00;;;;;;;;;;5055286;28;20466;-64
2023/10/31 03:00:31;;;;;;;3.37;1.00;;;;;;;;;;5055282;28;20506;-64
2023/10/31 03:02:59;;;;;;;0.90;0.90;;;;;;;;;;5054035;28;20442;-64
2023/10/31 03:05:25;;;;;;;1.13;0.73;;;;;;;;;;5054950;28;20498;-65
2023/10/31 03:07:52;;;;;;;1.10;1.00;;;;;;;;;;5054999;28;20532;-65
2023/10/31 03:10:18;;;;;;;1.47;0.90;;;;;;;;;;5054861;28;20418;-64
2023/10/31 03:12:44;;;;;;;5.00;1.20;;;;;;;;;;5054686;28;20418;-64
2023/10/31 03:15:10;;;;;;;1.73;1.10;;;;;;;;;;5055090;28;20391;-64
2023/10/31 03:17:36;;;;;;;4.60;1.03;;;;;;;;;;5053614;28;21031;-65
2023/10/31 03:20:03;;;;;;;4.30;1.10;;;;;;;;;;5054564;28;20521;-64
2023/10/31 03:22:29;;;;;;;2.87;0.90;;;;;;;;;;5054979;28;20443;-64
2023/10/31 03:24:55;;;;;;;3.17;1.47;;;;;;;;;;5054360;28;20469;-65
2023/10/31 03:27:23;;;;;;;3.60;1.13;;;;;;;;;;5054679;28;20489;-64
2023/10/31 03:29:49;;;;;;;3.70;1.07;;;;;;;;;;5054746;28;20430;-64
2023/10/31 03:32:15;;;;;;;2.13;0.87;;;;;;;;;;5054301;28;20430;-64
2023/10/31 03:34:41;;;;;;;3.80;1.00;;;;;;;;;;5052436;28;20910;-64
2023/10/31 03:37:07;;;;;;;3.60;1.20;;;;;;;;;;5054523;28;20466;-65
2023/10/31 03:39:33;;;;;;;3.37;1.10;;;;;;;;;;5054556;28;20885;-64
2023/10/31 03:42:00;;;;;;;3.10;1.03;;;;;;;;;;5054562;28;20505;-65
2023/10/31 03:44:26;;;;;;;0.97;0.97;;;;;;;;;;5054314;28;20476;-64
2023/10/31 03:46:52;;;;;;;3.13;1.20;;;;;;;;;;5054437;28;20512;-64
2023/10/31 03:49:18;;;;;;;1.00;1.00;;;;;;;;;;5054348;28;21351;-64
2023/10/31 03:51:44;;;;;;;3.23;1.20;;;;;;;;;;5054172;28;20433;-64
2023/10/31 03:54:10;;;;;;;1.20;1.10;;;;;;;;;;5054416;28;20414;-64
2023/10/31 03:56:40;;;;;;;1.63;0.80;;;;;;;;;;5053973;28;20417;-64
2023/10/31 03:59:06;;;;;;;1.70;0.90;;;;;;;;;;5052581;28;20846;-64
2023/10/31 04:01:32;;;;;;;2.20;1.00;;;;;;;;;;5054059;28;20454;-64
2023/10/31 04:03:58;;;;;;;5.23;1.03;;;;;;;;;;5053806;28;20781;-64
2023/10/31 04:06:24;;;;;;;5.53;1.10;;;;;;;;;;5054071;28;20518;-64
2023/10/31 04:08:50;;;;;;;2.00;0.87;;;;;;;;;;5053675;28;20472;-64
2023/10/31 04:11:15;;;;;;;8.87;1.60;;;;;;;;;;5053908;28;20429;-64
2023/10/31 04:13:44;;;;;;;5.77;1.63;;;;;;;;;;5053816;28;20991;-64
2023/10/31 04:16:10;;;;;;;2.00;1.13;;;;;;;;;;5053768;28;20450;-64
2023/10/31 04:18:37;;;;;;;7.77;1.37;;;;;;;;;;5054027;28;20470;-64
2023/10/31 04:21:03;;;;;;;3.57;1.37;;;;;;;;;;5053491;28;20910;-65
2023/10/31 04:23:29;;;;;;;1.73;1.30;;;;;;;;;;5053782;28;20431;-64
2023/10/31 04:25:55;;;;;;;1.43;1.20;;;;;;;;;;5053740;28;20476;-64
2023/10/31 04:28:21;;;;;;;6.80;1.03;;;;;;;;;;5053532;28;20481;-64
2023/10/31 04:30:47;;;;;;;2.20;1.40;;;;;;;;;;5053541;28;20411;-64
2023/10/31 04:33:13;;;;;;;3.13;1.00;;;;;;;;;;5053234;28;20410;-65
2023/10/31 04:35:39;;;;;;;6.23;1.00;;;;;;;;;;5053495;28;20415;-64
2023/10/31 04:38:05;;;;;;;2.60;1.20;;;;;;;;;;5053544;28;20446;-64
2023/10/31 04:40:31;;;;;;;1.77;1.50;;;;;;;;;;5051863;28;20807;-64
2023/10/31 04:42:57;;;;;;;3.80;1.47;;;;;;;;;;5053407;28;20439;-64
2023/10/31 04:45:23;;;;;;;8.70;1.63;;;;;;;;;;5053015;28;20914;-64
2023/10/31 04:47:49;;;;;;;1.07;1.00;;;;;;;;;;5053267;28;20561;-64
2023/10/31 04:50:15;;;;;;;4.67;1.20;;;;;;;;;;5053121;28;20398;-64
2023/10/31 04:52:41;;;;;;;1.87;1.27;;;;;;;;;;5052998;28;20433;-65
2023/10/31 04:55:08;;;;;;;11.17;1.43;;;;;;;;;;5053231;28;20403;-64
2023/10/31 04:57:34;;;;;;;2.20;1.30;;;;;;;;;;5052457;28;20406;-64
2023/10/31 05:00:00;;;;;;;7.53;1.33;;;;;;;;;;5052898;28;20429;-64
2023/10/31 05:02:26;;;;;;;9.63;1.60;;;;;;;;;;5052863;28;20434;-64
2023/10/31 05:04:52;;;;;;;3.70;1.00;;;;;;;;;;5051831;28;20464;-64
2023/10/31 05:07:18;;;;;;;3.57;1.07;;;;;;;;;;5052963;28;20463;-64
2023/10/31 05:09:44;;;;;;;6.83;1.20;;;;;;;;;;5052852;28;20419;-64
2023/10/31 05:12:10;;;;;;;4.50;1.17;;;;;;;;;;5053008;28;20417;-64
2023/10/31 05:14:36;;;;;;;7.10;1.17;;;;;;;;;;5052757;28;20885;-64
2023/10/31 05:17:02;;;;;;;1.70;1.10;;;;;;;;;;5052689;28;20497;-64
2023/10/31 05:19:28;;;;;;;6.00;1.47;;;;;;;;;;5052578;28;20451;-64
2023/10/31 05:21:54;;;;;;;1.33;1.07;;;;;;;;;;5052942;28;20894;-64
2023/10/31 05:24:20;;;;;;;11.50;2.90;;;;;;;;;;5052730;28;21028;-63
2023/10/31 05:26:46;;;;;;;5.30;1.20;;;;;;;;;;5052508;28;20411;-64
2023/10/31 05:29:15;;;;;;;2.70;1.47;;;;;;;;;;5052384;28;20477;-64
2023/10/31 05:31:41;;;;;;;2.00;1.60;;;;;;;;;;5053287;28;20768;-64
2023/10/31 05:34:10;;;;;;;1.10;1.00;;;;;;;;;;5052188;28;20458;-64
2023/10/31 05:36:36;;;;;;;7.20;1.50;;;;;;;;;;5052772;28;20456;-64
2023/10/31 05:39:02;;;;;;;7.53;1.33;;;;;;;;;;5052159;28;20466;-64
2023/10/31 05:41:28;;;;;;;7.23;1.77;;;;;;;;;;5052002;28;20443;-64
2023/10/31 05:43:54;;;;;;;2.20;1.63;;;;;;;;;;5052360;28;20477;-64
2023/10/31 05:46:20;;;;;;;6.73;2.37;;;;;;;;;;5051935;28;20465;-65
2023/10/31 05:48:49;;;;;;;4.03;1.90;;;;;;;;;;5052351;28;20466;-65
2023/10/31 05:51:15;;;;;;;5.53;1.73;;;;;;;;;;5052217;28;20416;-64
2023/10/31 05:53:44;;;;;;;1.60;1.30;;;;;;;;;;5052057;28;20894;-64
2023/10/31 05:56:14;;;;;;;7.60;1.60;;;;;;;;;;5050304;28;20443;-64
2023/10/31 05:58:41;;;;;;;8.43;1.87;;;;;;;;;;5053920;28;20430;-64
2023/10/31 06:01:07;;;;;;;3.33;1.50;;;;;;;;;;5056696;28;20418;-64
2023/10/31 06:03:33;;;;;;;0.90;0.73;;;;;;;;;;5055813;28;20415;-65
2023/10/31 06:05:59;;;;;;;2.67;1.30;;;;;;;;;;5056125;28;20449;-64
2023/10/31 06:08:28;;;;;;;3.90;1.23;;;;;;;;;;5054983;28;20477;-64
2023/10/31 06:10:54;;;;;;;3.70;1.30;;;;;;;;;;5056227;28;20419;-65
2023/10/31 06:13:21;;;;;;;4.13;1.13;;;;;;;;;;5056281;28;20616;-64
2023/10/31 06:15:47;;;;;;;5.23;1.50;;;;;;;;;;5055988;28;20417;-64
2023/10/31 06:18:13;;;;;;;2.13;1.30;;;;;;;;;;5056538;28;20407;-64
2023/10/31 06:20:39;;;;;;;2.37;1.40;;;;;;;;;;5055847;28;20825;-64
2023/10/31 06:23:05;;;;;;;8.93;1.37;;;;;;;;;;5056177;28;20793;-64
2023/10/31 06:25:31;;;;;;;7.80;1.13;;;;;;;;;;5055931;28;20513;-64
2023/10/31 06:27:57;;;;;;;4.13;1.53;;;;;;;;;;5055740;28;20545;-65
2023/10/31 06:30:25;;;;;;;5.43;1.73;;;;;;;;;;5055789;28;20912;-64
2023/10/31 06:32:51;;;;;;;2.93;1.37;;;;;;;;;;5055594;28;20898;-64
2023/10/31 06:35:17;;;;;;;3.47;3.17;;;;;;;;;;5055849;28;20437;-64
2023/10/31 06:37:43;;;;;;;2.97;1.63;;;;;;;;;;5055606;28;20414;-64
2023/10/31 06:40:10;;;;;;;2.97;1.40;;;;;;;;;;5055726;28;20458;-64
2023/10/31 06:42:36;;;;;;;3.60;1.20;;;;;;;;;;5055523;28;20415;-64
2023/10/31 06:45:02;;;;;;;2.40;1.73;;;;;;;;;;5055534;28;20446;-64
2023/10/31 06:47:28;;;;;;;2.33;1.10;;;;;;;;;;5055787;28;20812;-64
2023/10/31 06:49:54;;;;;;;3.03;1.20;;;;;;;;;;5055635;28;20438;-63
2023/10/31 06:52:20;;;;;;;4.50;1.17;;;;;;;;;;5055541;28;20886;-64
2023/10/31 06:54:46;;;;;;;2.70;1.10;;;;;;;;;;5054185;28;20450;-64
2023/10/31 06:57:12;;;;;;;4.00;1.50;;;;;;;;;;5055560;28;20421;-63
2023/10/31 06:59:41;;;;;;;3.70;1.17;;;;;;;;;;5055532;28;20937;-64
2023/10/31 07:02:07;;;;;;;4.53;1.40;;;;;;;;;;5055146;28;20415;-64
2023/10/31 07:04:33;;;;;;;3.30;1.57;;;;;;;;;;5055252;28;20422;-64
2023/10/31 07:06:59;;;;;;;6.33;1.60;;;;;;;;;;5055073;28;20407;-64
2023/10/31 07:09:26;;;;;;;4.30;1.50;;;;;;;;;;5053021;28;20410;-63
2023/10/31 07:11:52;;;;;;;1.00;0.97;;;;;;;;;;5055014;28;20173;-64
2023/10/31 07:14:18;;;;;;;6.70;1.10;;;;;;;;;;5055237;28;20917;-64
2023/10/31 07:16:44;;;;;;;3.57;1.37;;;;;;;;;;5055238;28;20483;-63
2023/10/31 07:19:10;;;;;;;4.37;1.20;;;;;;;;;;5054794;28;20414;-64
2023/10/31 07:21:36;;;;;;;2.33;1.27;;;;;;;;;;5054937;28;20468;-64
2023/10/31 07:24:02;;;;;;;3.23;2.67;;;;;;;;;;5055048;28;20399;-62
2023/10/31 07:26:28;;;;;;;3.47;1.10;;;;;;;;;;5054871;28;20494;-63
2023/10/31 07:28:57;;;;;;;2.27;0.87;;;;;;;;;;5054739;28;20627;-64
2023/10/31 07:31:26;;;;;;;2.80;1.47;;;;;;;;;;5054834;28;20407;-65
2023/10/31 07:33:54;;;;;;;2.30;1.07;;;;;;;;;;5054844;28;20419;-63
2023/10/31 07:36:20;;;;;;;5.90;1.20;;;;;;;;;;5054691;28;20897;-62
2023/10/31 07:38:46;;;;;;;5.93;1.87;;;;;;;;;;5054586;28;20426;-63
2023/10/31 07:41:12;;;;;;;2.47;1.00;;;;;;;;;;5054517;28;20457;-63
2023/10/31 07:43:38;;;;;;;1.80;1.07;;;;;;;;;;5054518;28;20453;-62
2023/10/31 07:46:04;;;;;;;3.67;1.20;;;;;;;;;;5052682;28;20846;-63
2023/10/31 07:48:30;;;;;;;1.67;1.37;;;;;;;;;;5053911;28;20462;-63
2023/10/31 07:50:56;;;;;;;1.80;0.93;;;;;;;;;;5054180;28;21060;-63
2023/10/31 07:53:22;;;;;;;4.77;1.40;;;;;;;;;;5054344;28;20492;-63
2023/10/31 07:55:48;;;;;;;5.13;1.50;;;;;;;;;;5054414;28;20513;-63
2023/10/31 07:58:13;;;;;;;1.43;0.90;;;;;;;;;;5053851;28;20778;-63
2023/10/31 08:00:39;;;;;;;0.83;0.83;;;;;;;;;;5054354;28;20438;-63
2023/10/31 08:03:05;;;;;;;5.13;1.30;;;;;;;;;;5052948;28;20483;-63
2023/10/31 08:05:34;;;;;;;3.40;0.93;;;;;;;;;;5054442;28;20422;-63
2023/10/31 08:08:00;;;;;;;4.77;1.17;;;;;;;;;;5054388;28;20500;-63
2023/10/31 08:10:28;;;;;;;3.13;1.10;;;;;;;;;;5053784;28;20462;-63
2023/10/31 08:12:54;;;;;;;1.47;0.90;;;;;;;;;;5054016;28;20913;-63
2023/10/31 08:15:20;;;;;;;4.83;1.10;;;;;;;;;;5053972;28;20430;-62
2023/10/31 08:17:46;;;;;;;3.47;0.83;;;;;;;;;;5053834;28;20926;-63
2023/10/31 08:20:13;;;;;;;1.17;1.07;;;;;;;;;;5053385;28;20454;-62
2023/10/31 08:22:42;;;;;;;2.83;0.90;;;;;;;;;;5054025;28;20449;-63
2023/10/31 08:25:08;;;;;;;3.77;1.30;;;;;;;;;;5053768;28;20493;-62
2023/10/31 08:27:34;;;;;;;2.30;0.80;;;;;;;;;;5053993;28;20504;-61
2023/10/31 08:30:02;;;;;;;2.77;1.17;;;;;;;;;;5053794;28;20419;-62
2023/10/31 08:32:28;;;;;;;2.40;1.13;;;;;;;;;;5053924;28;20395;-62
2023/10/31 08:34:56;;;;;;;1.73;1.23;;;;;;;;;;5053672;28;20418;-62
2023/10/31 08:37:24;;;;;;;2.67;1.03;;;;;;;;;;5053713;28;20945;-62
2023/10/31 08:39:53;;;;;;;5.80;1.30;;;;;;;;;;5053630;28;20419;-62
2023/10/31 08:42:19;;;;;;;2.23;0.70;;;;;;;;;;5053759;28;20818;-62
2023/10/31 08:44:45;;;;;;;2.60;1.40;;;;;;;;;;5053555;28;20480;-62
2023/10/31 08:47:13;;;;;;;2.87;0.87;;;;;;;;;;5053332;28;20501;-63
2023/10/31 08:49:39;;;;;;;2.83;1.23;;;;;;;;;;5053455;28;20851;-61
2023/10/31 08:52:05;;;;;;;4.30;1.30;;;;;;;;;;5052057;28;20450;-61
2023/10/31 08:54:31;;;;;;;5.47;1.67;;;;;;;;;;5053270;28;20529;-61
2023/10/31 08:56:57;;;;;;;1.17;0.93;;;;;;;;;;5053275;28;20447;-61
2023/10/31 08:59:23;;;;;;;1.73;1.47;;;;;;;;;;5053229;28;20411;-61
2023/10/31 09:01:49;;;;;;;2.93;1.57;;;;;;;;;;5053173;28;20779;-61
2023/10/31 09:04:17;;;;;;;6.60;1.27;;;;;;;;;;5052586;28;20475;-62
2023/10/31 09:06:43;;;;;;;6.33;2.57;;;;;;;;;;5052839;28;20799;-64
2023/10/31 09:09:10;;;;;;;6.47;1.83;;;;;;;;;;5052402;28;20466;-61
2023/10/31 09:11:36;;;;;;;11.43;1.57;;;;;;;;;;5051249;28;20443;-61
2023/10/31 09:14:02;;;;;;;18.30;1.90;;;;;;;;;;5052602;28;20490;-61
2023/10/31 09:16:28;;;;;;;13.80;1.50;;;;;;;;;;5052460;28;20451;-62
2023/10/31 09:18:54;;;;;;;2.60;1.40;;;;;;;;;;5052648;28;20758;-61
2023/10/31 09:21:20;;;;;;;13.93;2.17;;;;;;;;;;5052312;28;20465;-62
2023/10/31 09:23:46;;;;;;;2.00;1.10;;;;;;;;;;5052357;28;20423;-62
2023/10/31 09:26:12;;;;;;;3.70;1.20;;;;;;;;;;5052536;28;20944;-62
2023/10/31 09:28:40;;;;;;;6.90;1.07;;;;;;;;;;5052333;28;20466;-62
2023/10/31 09:31:06;;;;;;;1.60;0.90;;;;;;;;;;5052828;28;20425;-62
2023/10/31 09:33:32;;;;;;;1.07;1.07;;;;;;;;;;5051793;28;20407;-61
2023/10/31 09:35:58;;;;;;;8.60;1.47;;;;;;;;;;5052241;28;20426;-61
2023/10/31 09:38:24;;;;;;;2.10;1.50;;;;;;;;;;5052437;28;20452;-62
2023/10/31 09:40:50;;;;;;;11.63;2.47;;;;;;;;;;5052039;28;20425;-62
2023/10/31 09:43:18;;;;;;;3.43;1.00;;;;;;;;;;5052440;28;20445;-62
2023/10/31 09:45:45;;;;;;;1.73;0.93;;;;;;;;;;5051162;28;20436;-63
2023/10/31 09:48:11;;;;;;;2.50;1.30;;;;;;;;;;5051947;28;20535;-61
2023/10/31 09:50:38;;;;;;;3.00;1.10;;;;;;;;;;5052447;28;20397;-61
2023/10/31 09:53:06;;;;;;;2.53;0.90;;;;;;;;;;5052513;28;20918;-61
2023/10/31 09:55:35;;;;;;;3.83;1.30;;;;;;;;;;5052574;28;20417;-62
2023/10/31 09:58:03;;;;;;;4.30;1.07;;;;;;;;;;5050809;28;20430;-62
2023/10/31 10:00:29;;;;;;;3.17;1.40;;;;;;;;;;5052070;28;20431;-62
2023/10/31 10:02:55;;;;;;;1.63;1.30;;;;;;;;;;5052334;28;20513;-61
2023/10/31 10:05:23;;;;;;;11.17;1.50;;;;;;;;;;5052178;28;20423;-62
2023/10/31 10:07:50;;;;;;;0.93;0.93;;;;;;;;;;5051846;28;20832;-62
2023/10/31 10:10:16;;;;;;;1.60;1.47;;;;;;;;;;5052284;28;20422;-60
2023/10/31 10:12:43;;;;;;;7.20;1.50;;;;;;;;;;5051740;28;20501;-60
2023/10/31 10:15:10;;;;;;;1.63;0.90;;;;;;;;;;5052033;28;20406;-59
2023/10/31 10:17:36;;;;;;;4.83;1.90;;;;;;;;;;5052102;28;20449;-62
2023/10/31 10:20:06;;;;;;;6.43;1.70;;;;;;;;;;5051725;28;20459;-60
2023/10/31 10:22:32;;;;;;;3.47;1.30;;;;;;;;;;5051838;28;20438;-65
2023/10/31 10:24:58;;;;;;;8.27;2.30;;;;;;;;;;5052235;28;20414;-61
2023/10/31 10:27:24;;;;;;;5.90;1.73;;;;;;;;;;5051917;28;20822;-61
2023/10/31 10:29:55;;;;;;;1.30;1.20;;;;;;;;;;5052082;28;20392;-61
2023/10/31 10:32:24;;;;;;;2.23;0.90;;;;;;;;;;5051429;28;20435;-61
2023/10/31 10:34:50;;;;;;;2.80;1.27;;;;;;;;;;5051998;28;20435;-62
2023/10/31 10:37:17;;;;;;;5.87;1.33;;;;;;;;;;5052328;28;20930;-61
2023/10/31 10:39:47;;;;;;;4.30;1.00;;;;;;;;;;5051997;28;20413;-61
2023/10/31 10:42:14;;;;;;;2.03;1.00;;;;;;;;;;5051977;28;20434;-62
2023/10/31 10:44:43;;;;;;;1.83;1.03;;;;;;;;;;5054544;28;20426;-62
2023/10/31 10:47:12;;;;;;;2.30;1.13;;;;;;;;;;5055259;28;20441;-60
2023/10/31 10:49:38;;;;;;;2.40;1.10;;;;;;;;;;5055792;28;20414;-63
2023/10/31 10:52:10;;;;;;;0.80;0.73;;;;;;;;;;5055644;28;20430;-60
2023/10/31 10:54:41;;;;;;;1.53;0.90;;;;;;;;;;5055793;28;20412;-60
2023/10/31 10:57:30;;;;;;;1.23;1.00;;;;;;;;;;5055511;28;20497;-62
2023/10/31 10:59:58;;;;;;;7.90;1.03;;;;;;;;;;5055282;28;20535;-63
2023/10/31 11:02:25;;;;;;;7.20;0.90;;;;;;;;;;5055388;28;20822;-63
2023/10/31 11:04:51;;;;;;;1.00;0.90;;;;;;;;;;5055329;28;20406;-62
2023/10/31 11:07:18;;;;;;;3.93;0.90;;;;;;;;;;5055266;28;20798;-61
2023/10/31 11:09:47;;;;;;;0.80;0.70;;;;;;;;;;5055312;28;20427;-60
2023/10/31 11:12:16;;;;;;;2.23;0.90;;;;;;;;;;5055186;28;20484;-60
2023/10/31 11:14:43;;;;;;;1.37;0.90;;;;;;;;;;5055276;28;20395;-62
2023/10/31 11:17:15;;;;;;;1.03;0.90;;;;;;;;;;5054577;28;20427;-61
2023/10/31 11:19:41;;;;;;;1.83;1.17;;;;;;;;;;5053652;28;20916;-61
2023/10/31 11:22:07;;;;;;;1.43;0.90;;;;;;;;;;5054975;28;20446;-62
2023/10/31 11:24:33;;;;;;;3.37;0.90;;;;;;;;;;5055054;28;20421;-61
2023/10/31 11:27:00;;;;;;;1.83;0.70;;;;;;;;;;5053327;28;20455;-61
2023/10/31 11:29:26;;;;;;;2.30;1.00;;;;;;;;;;5055023;28;20458;-62
2023/10/31 11:31:56;;;;;;;2.07;0.63;;;;;;;;;;5054755;28;20939;-62
2023/10/31 11:34:22;;;;;;;0.77;0.77;;;;;;;;;;5054908;28;20890;-63
2023/10/31 11:36:48;;;;;;;0.40;0.40;;;;;;;;;;5054805;28;20445;-63
2023/10/31 11:39:25;;;;;;;1.00;0.90;;;;;;;;;;5054720;28;20891;-61
2023/10/31 11:41:54;;;;;;;1.73;0.50;;;;;;;;;;5054752;28;20404;-64
2023/10/31 11:44:22;;;;;;;3.43;1.07;;;;;;;;;;5054338;28;20434;-63
2023/10/31 11:46:52;;;;;;;5.17;1.47;;;;;;;;;;5054572;28;20415;-60
2023/10/31 11:49:18;;;;;;;2.43;0.67;;;;;;;;;;5054483;28;20873;-63
2023/10/31 11:51:47;;;;;;;2.53;2.23;;;;;;;;;;5054602;28;20442;-63
2023/10/31 11:54:14;;;;;;;2.10;0.60;;;;;;;;;;5054360;28;20415;-62
2023/10/31 11:56:40;;;;;;;0.40;0.40;;;;;;;;;;5053126;28;20770;-61
2023/10/31 11:59:09;;;;;;;0.80;0.53;;;;;;;;;;5054031;28;20441;-63
2023/10/31 12:01:46;;;;;;;0.80;0.80;;;;;;;;;;5054153;28;20785;-61
2023/10/31 12:04:22;;;;;;;4.93;0.50;;;;;;;;;;5054037;28;20456;-61
2023/10/31 12:06:57;;;;;;;2.00;0.57;;;;;;;;;;5053940;28;20425;-60
2023/10/31 12:09:23;;;;;;;1.07;0.80;;;;;;;;;;5053954;28;20468;-61
2023/10/31 12:11:49;;;;;;;4.13;1.17;;;;;;;;;;5054041;28;20433;-62
2023/10/31 12:14:19;;;;;;;0.80;0.80;;;;;;;;;;5053908;28;20492;-61
2023/10/31 12:16:46;;;;;;;0.80;0.80;;;;;;;;;;5053998;28;20446;-60
2023/10/31 12:19:12;;;;;;;6.00;1.20;;;;;;;;;;5053693;28;20792;-63
2023/10/31 12:21:43;;;;;;;0.60;0.57;;;;;;;;;;5053962;28;20861;-67
2023/10/31 12:24:12;;;;;;;1.77;0.70;;;;;;;;;;5053392;28;20473;-62
2023/10/31 12:26:39;;;;;;;0.70;0.60;;;;;;;;;;5053911;28;20869;-62
2023/10/31 12:29:12;;;;;;;0.50;0.50;;;;;;;;;;5053598;28;20581;-61
2023/10/31 12:32:01;;;;;;;3.90;0.60;;;;;;;;;;5053843;28;20457;-63
2023/10/31 12:34:27;;;;;;;1.70;0.70;;;;;;;;;;5053123;28;20506;-62
2023/10/31 12:36:54;;;;;;;0.53;0.50;;;;;;;;;;5053971;28;20424;-61
2023/10/31 12:39:23;;;;;;;0.70;0.70;;;;;;;;;;5053369;28;20456;-62
2023/10/31 12:41:51;;;;;;;0.60;0.60;;;;;;;;;;5053517;28;20406;-63
2023/10/31 12:44:24;;;;;;;0.57;0.57;;;;;;;;;;5053492;28;20849;-62
2023/10/31 12:46:50;;;;;;;0.50;0.50;;;;;;;;;;5053416;28;20463;-62
2023/10/31 12:49:19;;;;;;;1.80;0.40;;;;;;;;;;5053167;28;20975;-62
2023/10/31 12:52:04;;;;;;;0.50;0.50;;;;;;;;;;5053141;28;20471;-61
2023/10/31 12:54:34;;;;;;;2.20;0.50;;;;;;;;;;5053067;28;20422;-61
2023/10/31 12:57:04;;;;;;;0.60;0.60;;;;;;;;;;5053329;28;20862;-61
2023/10/31 12:59:32;;;;;;;3.80;0.60;;;;;;;;;;5053049;28;20854;-62
2023/10/31 13:01:59;;;;;;;0.63;0.63;;;;;;;;;;5053178;28;20413;-62
2023/10/31 13:04:29;;;;;;;1.93;0.60;;;;;;;;;;5053020;28;20441;-62
2023/10/31 13:06:58;;;;;;;0.50;0.40;;;;;;;;;;5052931;28;20432;-62
2023/10/31 13:09:28;;;;;;;0.53;0.40;;;;;;;;;;5052672;28;20499;-62
2023/10/31 13:11:57;;;;;;;0.40;0.40;;;;;;;;;;5052567;28;20531;-62
2023/10/31 13:14:23;;;;;;;4.20;0.50;;;;;;;;;;5052417;28;20404;-62
2023/10/31 13:16:49;;;;;;;0.40;0.40;;;;;;;;;;5052482;28;20473;-62
2023/10/31 13:19:16;;;;;;;0.37;0.37;;;;;;;;;;5052691;28;20446;-62
2023/10/31 13:21:42;;;;;;;1.00;0.60;;;;;;;;;;5052711;28;20484;-61
2023/10/31 13:24:08;;;;;;;0.50;0.40;;;;;;;;;;5052747;28;20516;-62
2023/10/31 13:26:34;;;;;;;2.20;0.60;;;;;;;;;;5052489;28;20416;-62
2023/10/31 13:29:00;;;;;;;0.40;0.40;;;;;;;;;;5052603;28;20487;-62
2023/10/31 13:31:26;;;;;;;2.07;0.60;;;;;;;;;;5052420;28;20410;-62
2023/10/31 13:33:52;;;;;;;2.30;0.60;;;;;;;;;;5052633;28;20805;-62
2023/10/31 13:36:18;;;;;;;0.53;0.53;;;;;;;;;;5052629;28;20453;-63
2023/10/31 13:38:44;;;;;;;0.60;0.60;;;;;;;;;;5052494;28;20433;-62
2023/10/31 13:41:10;;;;;;;0.40;0.40;;;;;;;;;;5052654;28;20403;-62
2023/10/31 13:43:36;;;;;;;1.40;0.73;;;;;;;;;;5052455;28;20450;-63
2023/10/31 13:46:03;;;;;;;1.13;0.50;;;;;;;;;;5052672;28;20423;-62
2023/10/31 13:48:29;;;;;;;1.13;0.60;;;;;;;;;;5052434;28;20462;-63
2023/10/31 13:50:55;;;;;;;2.13;0.60;;;;;;;;;;5052614;28;20420;-62
2023/10/31 13:53:23;;;;;;;2.70;0.50;;;;;;;;;;5052343;28;20871;-63
2023/10/31 13:55:49;;;;;;;2.23;0.50;;;;;;;;;;5052262;28;20416;-63
2023/10/31 13:58:15;;;;;;;1.20;0.70;;;;;;;;;;5052405;28;20424;-62
2023/10/31 14:00:41;;;;;;;10.33;1.50;;;;;;;;;;5052212;28;20420;-61
2023/10/31 14:03:10;;;;;;;1.33;1.20;;;;;;;;;;5052363;28;20427;-64
2023/10/31 14:05:36;;;;;;;0.60;0.60;;;;;;;;;;5052259;28;20427;-63
2023/10/31 14:08:03;;;;;;;1.13;0.97;;;;;;;;;;5052251;28;20466;-63
2023/10/31 14:10:31;;;;;;;1.13;0.60;;;;;;;;;;5052209;28;20939;-63
2023/10/31 14:12:57;;;;;;;1.50;0.70;;;;;;;;;;5052207;28;20407;-63
2023/10/31 14:15:23;;;;;;;1.10;1.00;;;;;;;;;;5052161;28;20435;-61
2023/10/31 14:17:49;;;;;;;1.20;1.10;;;;;;;;;;5052067;28;20418;-61
2023/10/31 14:20:15;;;;;;;5.33;1.10;;;;;;;;;;5054570;28;20468;-61
2023/10/31 14:22:41;;;;;;;2.83;0.90;;;;;;;;;;5056076;28;20409;-61
2023/10/31 14:25:12;;;;;;;0.80;0.70;;;;;;;;;;5054569;28;20512;-61
2023/10/31 14:27:38;;;;;;;0.87;0.70;;;;;;;;;;5056029;28;20834;-60
2023/10/31 14:30:05;;;;;;;2.13;0.70;;;;;;;;;;5055931;28;20417;-61
2023/10/31 14:32:34;;;;;;;0.60;0.60;;;;;;;;;;5056022;28;20446;-61
2023/10/31 14:35:00;;;;;;;1.17;0.70;;;;;;;;;;5055828;28;20444;-61
2023/10/31 14:37:27;;;;;;;0.70;0.70;;;;;;;;;;5055961;28;20425;-61
2023/10/31 14:39:56;;;;;;;2.30;0.70;;;;;;;;;;5055774;28;20429;-61
2023/10/31 14:42:22;;;;;;;1.73;0.60;;;;;;;;;;5055892;28;20396;-60